createdAt,value
2017-11-10T00:04:48.587Z,21.47
2017-11-10T00:07:16.120Z,21.70
2017-11-10T00:09:43.655Z,22.50
2017-11-10T00:12:11.235Z,22.30
2017-11-10T00:14:38.766Z,22.33
2017-11-10T00:17:06.546Z,23.07
2017-11-10T00:19:34.093Z,23.13
2017-11-10T00:22:01.629Z,26.70
2017-11-10T00:24:29.138Z,22.87
2017-11-10T00:26:56.699Z,24.20
2017-11-10T00:29:24.274Z,23.03
2017-11-10T00:31:51.832Z,22.57
2017-11-10T00:34:19.379Z,23.07
2017-11-10T00:36:46.929Z,25.90
2017-11-10T00:39:15.356Z,25.70
2017-11-10T00:41:42.902Z,29.10
2017-11-10T00:44:10.436Z,25.37
2017-11-10T00:46:38.775Z,26.33
2017-11-10T00:49:07.617Z,25.33
2017-11-10T00:51:35.231Z,26.17
2017-11-10T00:54:02.799Z,29.13
2017-11-10T00:56:30.331Z,27.50
2017-11-10T00:58:59.759Z,25.53
2017-11-10T01:01:27.269Z,23.90
2017-11-10T01:03:54.794Z,21.83
2017-11-10T01:06:23.118Z,28.20
2017-11-10T01:08:50.660Z,25.17
2017-11-10T01:11:18.201Z,21.47
2017-11-10T01:13:50.396Z,22.63
2017-11-10T01:16:17.953Z,23.57
2017-11-10T01:18:46.083Z,25.30
2017-11-10T01:21:14.429Z,22.80
2017-11-10T01:23:42.125Z,21.77
2017-11-10T01:26:09.665Z,22.43
2017-11-10T01:28:37.220Z,20.50
2017-11-10T01:31:04.751Z,21.57
2017-11-10T01:33:32.299Z,22.73
2017-11-10T01:35:59.880Z,26.43
2017-11-10T01:38:27.443Z,22.17
2017-11-10T01:40:54.985Z,20.00
2017-11-10T01:43:22.508Z,21.63
2017-11-10T01:45:50.854Z,20.00
2017-11-10T01:48:30.094Z,20.67
2017-11-10T01:50:57.801Z,23.60
2017-11-10T01:53:25.358Z,18.20
2017-11-10T01:55:53.373Z,18.53
2017-11-10T01:58:21.152Z,19.17
2017-11-10T02:00:48.915Z,18.80
2017-11-10T02:03:16.466Z,18.20
2017-11-10T02:05:44.116Z,20.33
2017-11-10T02:08:11.873Z,17.70
2017-11-10T02:10:39.386Z,20.23
2017-11-10T02:13:06.966Z,19.07
2017-11-10T02:15:34.486Z,18.07
2017-11-10T02:18:02.027Z,16.50
2017-11-10T02:20:29.623Z,19.40
2017-11-10T02:22:57.988Z,16.80
2017-11-10T02:25:25.494Z,17.67
2017-11-10T02:27:53.024Z,16.10
2017-11-10T02:30:21.398Z,18.50
2017-11-10T02:32:48.997Z,16.33
2017-11-10T02:35:16.602Z,18.10
2017-11-10T02:37:44.135Z,16.77
2017-11-10T02:40:11.747Z,15.60
2017-11-10T02:42:40.239Z,16.97
2017-11-10T02:45:07.805Z,16.50
2017-11-10T02:47:35.323Z,19.70
2017-11-10T02:50:03.105Z,16.50
2017-11-10T02:52:30.646Z,16.67
2017-11-10T02:54:58.191Z,16.90
2017-11-10T02:57:25.824Z,16.30
2017-11-10T02:59:53.340Z,17.87
2017-11-10T03:02:21.957Z,17.27
2017-11-10T03:04:50.668Z,16.63
2017-11-10T03:07:18.178Z,15.57
2017-11-10T03:09:45.724Z,20.73
2017-11-10T03:12:13.284Z,18.50
2017-11-10T03:14:40.811Z,15.90
2017-11-10T03:17:08.420Z,16.73
2017-11-10T03:19:35.957Z,15.90
2017-11-10T03:22:03.467Z,17.07
2017-11-10T03:24:31.012Z,17.87
2017-11-10T03:26:58.545Z,15.13
2017-11-10T03:29:26.108Z,17.53
2017-11-10T03:31:53.633Z,16.00
2017-11-10T03:34:21.681Z,15.57
2017-11-10T03:36:49.202Z,15.50
2017-11-10T03:39:19.092Z,18.90
2017-11-10T03:41:46.691Z,20.40
2017-11-10T03:44:14.230Z,17.93
2017-11-10T03:46:42.515Z,16.57
2017-11-10T03:49:10.061Z,16.97
2017-11-10T03:51:38.031Z,14.53
2017-11-10T03:54:06.326Z,16.70
2017-11-10T03:56:33.854Z,19.30
2017-11-10T03:59:01.409Z,18.17
2017-11-10T04:01:29.011Z,17.33
2017-11-10T04:03:56.556Z,16.00
2017-11-10T04:06:24.126Z,15.77
2017-11-10T04:08:51.695Z,16.80
2017-11-10T04:11:19.202Z,18.33
2017-11-10T04:13:46.976Z,16.80
2017-11-10T04:16:14.484Z,17.60
2017-11-10T04:18:42.064Z,17.80
2017-11-10T04:21:10.525Z,17.87
2017-11-10T04:23:38.122Z,17.70
2017-11-10T04:26:06.092Z,15.77
2017-11-10T04:28:33.607Z,17.23
2017-11-10T04:31:01.230Z,19.00
2017-11-10T04:33:28.831Z,22.10
2017-11-10T04:35:56.470Z,16.43
2017-11-10T04:38:24.067Z,16.90
2017-11-10T04:40:51.596Z,17.80
2017-11-10T04:43:19.125Z,16.50
2017-11-10T04:45:46.649Z,16.33
2017-11-10T04:48:15.871Z,16.53
2017-11-10T04:50:43.401Z,17.20
2017-11-10T04:53:10.949Z,15.60
2017-11-10T04:55:38.465Z,15.70
2017-11-10T04:58:06.797Z,17.60
2017-11-10T05:00:34.731Z,15.80
2017-11-10T05:03:03.017Z,15.83
2017-11-10T05:05:30.559Z,14.10
2017-11-10T05:07:58.111Z,15.47
2017-11-10T05:10:25.655Z,18.47
2017-11-10T05:12:53.185Z,15.63
2017-11-10T05:15:20.926Z,14.53
2017-11-10T05:17:48.475Z,15.77
2017-11-10T05:20:15.993Z,14.80
2017-11-10T05:22:45.050Z,12.90
2017-11-10T05:25:12.654Z,15.80
2017-11-10T05:27:40.263Z,14.30
2017-11-10T05:30:09.361Z,14.20
2017-11-10T05:32:37.772Z,19.00
2017-11-10T05:35:06.212Z,16.57
2017-11-10T05:37:33.757Z,13.77
2017-11-10T05:40:02.077Z,17.83
2017-11-10T05:42:30.474Z,20.90
2017-11-10T05:44:58.005Z,19.57
2017-11-10T05:47:26.415Z,17.30
2017-11-10T05:49:54.762Z,16.50
2017-11-10T05:52:22.272Z,13.90
2017-11-10T05:54:49.823Z,16.33
2017-11-10T05:57:17.372Z,13.30
2017-11-10T05:59:44.889Z,13.50
2017-11-10T06:02:12.713Z,15.00
2017-11-10T06:04:40.240Z,17.00
2017-11-10T06:07:07.806Z,12.93
2017-11-10T06:09:35.329Z,17.00
2017-11-10T06:12:02.900Z,16.20
2017-11-10T06:14:30.483Z,14.60
2017-11-10T06:16:58.001Z,15.27
2017-11-10T06:19:25.508Z,16.30
2017-11-10T06:21:53.826Z,16.97
2017-11-10T06:24:22.142Z,19.50
2017-11-10T06:26:49.645Z,16.70
2017-11-10T06:29:18.121Z,17.20
2017-11-10T06:31:46.783Z,14.20
2017-11-10T06:34:15.122Z,17.40
2017-11-10T06:36:42.741Z,18.43
2017-11-10T06:39:10.363Z,16.10
2017-11-10T06:41:37.941Z,17.33
2017-11-10T06:44:05.492Z,16.10
2017-11-10T06:46:33.056Z,15.47
2017-11-10T06:49:00.579Z,14.60
2017-11-10T06:51:28.143Z,16.50
2017-11-10T06:53:55.700Z,22.10
2017-11-10T06:56:23.302Z,17.10
2017-11-10T06:58:50.810Z,16.90
2017-11-10T07:01:19.112Z,15.50
2017-11-10T07:03:46.664Z,16.37
2017-11-10T07:06:14.248Z,16.30
2017-11-10T07:08:41.780Z,17.80
2017-11-10T07:11:09.361Z,17.47
2017-11-10T07:13:36.938Z,22.80
2017-11-10T07:16:04.488Z,16.83
2017-11-10T07:18:32.542Z,18.30
2017-11-10T07:21:00.047Z,13.37
2017-11-10T07:23:27.562Z,16.93
2017-11-10T07:25:55.114Z,17.07
2017-11-10T07:28:22.644Z,15.00
2017-11-10T07:30:51.430Z,17.17
2017-11-10T07:33:19.065Z,16.40
2017-11-10T07:35:46.883Z,22.10
2017-11-10T07:38:14.431Z,16.40
2017-11-10T07:40:42.007Z,17.80
2017-11-10T07:43:09.824Z,17.57
2017-11-10T07:45:37.331Z,14.87
2017-11-10T07:48:04.926Z,16.77
2017-11-10T07:50:32.462Z,15.53
2017-11-10T07:53:00.008Z,15.17
2017-11-10T07:55:27.558Z,23.43
2017-11-10T07:57:55.134Z,20.80
2017-11-10T08:00:22.662Z,18.50
2017-11-10T08:02:50.285Z,17.07
2017-11-10T08:05:17.983Z,21.43
2017-11-10T08:07:46.320Z,28.30
2017-11-10T08:10:14.232Z,13.90
2017-11-10T08:12:41.800Z,16.80
2017-11-10T08:15:09.333Z,18.40
2017-11-10T08:17:36.943Z,18.20
2017-11-10T08:20:05.516Z,17.23
2017-11-10T08:22:33.109Z,16.80
2017-11-10T08:25:00.702Z,19.53
2017-11-10T08:27:29.630Z,16.03
2017-11-10T08:29:57.236Z,13.23
2017-11-10T08:32:24.787Z,11.47
2017-11-10T08:34:52.332Z,18.17
2017-11-10T08:37:19.889Z,19.83
2017-11-10T08:39:47.482Z,15.13
2017-11-10T08:42:15.054Z,13.00
2017-11-10T08:44:42.729Z,18.70
2017-11-10T08:47:11.014Z,16.63
2017-11-10T08:49:39.431Z,15.50
2017-11-10T08:52:06.989Z,13.67
2017-11-10T08:54:34.543Z,11.17
2017-11-10T08:57:02.084Z,11.67
2017-11-10T08:59:29.639Z,11.90
2017-11-10T09:01:57.199Z,11.23
2017-11-10T09:04:24.761Z,13.70
2017-11-10T09:06:52.646Z,11.87
2017-11-10T09:09:20.210Z,10.73
2017-11-10T09:11:48.072Z,12.60
2017-11-10T09:14:16.070Z,13.93
2017-11-10T09:16:45.171Z,11.00
2017-11-10T09:19:16.713Z,9.67
2017-11-10T09:21:44.326Z,15.03
2017-11-10T09:24:11.902Z,10.77
2017-11-10T09:26:39.693Z,10.70
2017-11-10T09:29:09.888Z,13.13
2017-11-10T09:31:46.126Z,12.13
2017-11-10T09:34:19.444Z,18.00
2017-11-10T09:37:14.156Z,15.60
2017-11-10T09:43:03.412Z,18.70
2017-11-10T09:45:32.288Z,9.90
2017-11-10T09:48:15.484Z,11.23
2017-11-10T09:50:48.580Z,10.63
2017-11-10T09:53:17.913Z,13.73
2017-11-10T09:55:48.279Z,14.30
2017-11-10T09:58:21.553Z,11.13
2017-11-10T10:01:07.150Z,10.20
2017-11-10T10:03:50.410Z,12.70
2017-11-10T10:06:40.751Z,8.70
2017-11-10T10:09:23.229Z,13.37
2017-11-10T10:12:08.407Z,13.07
2017-11-10T10:23:41.757Z,10.10
2017-11-10T10:26:09.330Z,21.00
2017-11-10T10:28:36.871Z,15.13
2017-11-10T10:31:04.438Z,9.10
2017-11-10T10:33:32.100Z,10.57
2017-11-10T10:36:00.395Z,18.90
2017-11-10T10:38:28.768Z,20.93
2017-11-10T10:40:56.547Z,10.10
2017-11-10T10:43:24.989Z,12.53
2017-11-10T10:45:52.635Z,12.30
2017-11-10T10:48:20.597Z,16.80
2017-11-10T10:50:48.156Z,12.70
2017-11-10T10:53:15.680Z,10.07
2017-11-10T10:55:43.359Z,14.80
2017-11-10T10:58:12.290Z,18.73
2017-11-10T11:00:39.851Z,14.83
2017-11-10T11:03:07.417Z,20.13
2017-11-10T11:05:34.974Z,14.87
2017-11-10T11:08:02.521Z,15.90
2017-11-10T11:10:30.058Z,7.67
2017-11-10T11:12:57.612Z,22.93
2017-11-10T11:15:25.157Z,10.70
2017-11-10T11:17:52.704Z,7.80
2017-11-10T11:20:20.245Z,12.80
2017-11-10T11:22:47.803Z,10.43
2017-11-10T11:25:15.368Z,11.20
2017-11-10T11:27:42.900Z,9.97
2017-11-10T11:30:10.507Z,12.20
2017-11-10T11:32:38.020Z,8.17
2017-11-10T11:35:05.585Z,10.50
2017-11-10T11:37:33.146Z,10.93
2017-11-10T11:40:00.924Z,13.17
2017-11-10T11:42:28.422Z,11.40
2017-11-10T11:44:55.967Z,7.97
2017-11-10T11:47:24.311Z,10.70
2017-11-10T11:49:52.030Z,7.60
2017-11-10T11:52:19.562Z,11.33
2017-11-10T11:54:47.872Z,8.50
2017-11-10T11:57:15.638Z,10.30
2017-11-10T11:59:43.215Z,7.80
2017-11-10T12:02:11.074Z,11.43
2017-11-10T12:04:38.604Z,9.43
2017-11-10T12:07:06.192Z,9.70
2017-11-10T12:09:33.746Z,10.53
2017-11-10T12:12:01.347Z,11.50
2017-11-10T12:14:28.969Z,9.40
2017-11-10T12:16:56.577Z,11.50
2017-11-10T12:19:24.893Z,9.33
2017-11-10T12:21:52.547Z,9.83
2017-11-10T12:24:20.145Z,8.73
2017-11-10T12:26:47.665Z,9.53
2017-11-10T12:29:15.289Z,9.53
2017-11-10T12:31:43.104Z,13.00
2017-11-10T12:34:10.771Z,15.37
2017-11-10T12:36:38.368Z,11.20
2017-11-10T12:39:05.943Z,9.50
2017-11-10T12:41:34.274Z,9.60
2017-11-10T12:44:01.812Z,13.87
2017-11-10T12:46:30.913Z,10.90
2017-11-10T12:48:58.466Z,11.97
2017-11-10T12:51:26.009Z,9.40
2017-11-10T12:53:54.346Z,9.67
2017-11-10T12:56:21.901Z,11.93
2017-11-10T12:58:49.477Z,9.20
2017-11-10T13:01:17.019Z,8.50
2017-11-10T13:03:44.632Z,9.40
2017-11-10T13:06:12.906Z,15.30
2017-11-10T13:08:41.176Z,9.67
2017-11-10T13:11:10.042Z,10.80
2017-11-10T13:13:37.640Z,9.37
2017-11-10T13:16:05.157Z,8.20
2017-11-10T13:18:33.113Z,9.37
2017-11-10T13:21:00.696Z,12.30
2017-11-10T13:23:28.258Z,12.47
2017-11-10T13:25:55.814Z,12.30
2017-11-10T13:28:23.682Z,11.80
2017-11-10T13:30:51.571Z,12.80
2017-11-10T13:33:19.296Z,14.57
2017-11-10T13:35:47.198Z,13.43
2017-11-10T13:38:15.114Z,12.60
2017-11-10T13:40:43.913Z,10.17
2017-11-10T13:43:11.963Z,13.70
2017-11-10T13:45:40.387Z,12.87
2017-11-10T13:48:07.894Z,13.30
2017-11-10T13:50:35.467Z,15.23
2017-11-10T13:53:02.977Z,13.40
2017-11-10T13:55:30.592Z,15.50
2017-11-10T13:57:58.166Z,15.03
2017-11-10T14:00:27.041Z,16.03
2017-11-10T14:02:54.584Z,21.17
2017-11-10T14:05:22.161Z,27.43
2017-11-10T14:07:49.716Z,24.43
2017-11-10T14:10:17.296Z,15.73
2017-11-10T14:12:45.875Z,15.27
2017-11-10T14:15:13.407Z,18.57
2017-11-10T14:17:40.956Z,14.30
2017-11-10T14:20:08.637Z,16.53
2017-11-10T14:22:36.184Z,21.87
2017-11-10T14:25:06.913Z,16.47
2017-11-10T14:27:34.431Z,25.97
2017-11-10T14:30:01.988Z,20.37
2017-11-10T14:32:29.578Z,14.60
2017-11-10T14:34:57.159Z,16.20
2017-11-10T14:37:24.674Z,14.20
2017-11-10T14:39:52.227Z,14.33
2017-11-10T14:42:19.769Z,14.13
2017-11-10T14:44:47.290Z,19.93
2017-11-10T14:47:14.848Z,14.40
2017-11-10T14:49:42.358Z,14.60
2017-11-10T14:52:09.938Z,14.40
2017-11-10T14:54:37.668Z,14.57
2017-11-10T14:57:05.771Z,13.63
2017-11-10T14:59:33.314Z,13.47
2017-11-10T15:02:00.838Z,14.20
2017-11-10T15:04:28.432Z,13.80
2017-11-10T15:06:55.966Z,14.43
2017-11-10T15:09:23.522Z,13.93
2017-11-10T15:11:51.081Z,14.20
2017-11-10T15:14:18.700Z,12.23
2017-11-10T15:16:46.276Z,13.10
2017-11-10T15:19:14.580Z,18.33
2017-11-10T15:21:42.188Z,10.30
2017-11-10T15:24:09.723Z,13.60
2017-11-10T15:26:37.294Z,12.97
2017-11-10T15:29:04.850Z,10.23
2017-11-10T15:31:32.393Z,10.70
2017-11-10T15:33:59.968Z,8.93
2017-11-10T15:36:27.517Z,9.93
2017-11-10T15:38:55.077Z,9.53
2017-11-10T15:41:22.674Z,10.67
2017-11-10T15:43:51.005Z,13.77
2017-11-10T15:46:18.614Z,12.83
2017-11-10T15:48:47.107Z,13.20
2017-11-10T15:51:14.629Z,9.83
2017-11-10T15:53:42.153Z,11.07
2017-11-10T15:56:09.725Z,11.73
2017-11-10T15:58:37.225Z,9.07
2017-11-10T16:01:04.785Z,8.37
2017-11-10T16:03:33.208Z,10.60
2017-11-10T16:06:00.746Z,9.23
2017-11-10T16:08:28.309Z,9.93
2017-11-10T16:10:55.912Z,7.80
2017-11-10T16:13:23.547Z,8.77
2017-11-10T16:15:51.435Z,10.80
2017-11-10T16:18:18.966Z,8.30
2017-11-10T16:20:46.628Z,8.50
2017-11-10T16:23:14.143Z,9.00
2017-11-10T16:25:41.969Z,8.43
2017-11-10T16:28:09.495Z,9.23
2017-11-10T16:30:37.130Z,8.30
2017-11-10T16:33:04.676Z,8.90
2017-11-10T16:35:32.246Z,7.90
2017-11-10T16:37:59.800Z,10.30
2017-11-10T16:40:27.569Z,11.57
2017-11-10T16:42:55.156Z,7.57
2017-11-10T16:45:23.475Z,7.87
2017-11-10T16:47:50.990Z,9.73
2017-11-10T16:50:18.546Z,7.57
2017-11-10T16:52:46.829Z,8.43
2017-11-10T16:55:15.148Z,8.10
2017-11-10T16:57:42.741Z,7.07
2017-11-10T17:00:10.262Z,12.10
2017-11-10T17:02:38.009Z,7.17
2017-11-10T17:05:05.610Z,8.20
2017-11-10T17:07:33.157Z,8.13
2017-11-10T17:10:00.709Z,8.27
2017-11-10T17:12:28.240Z,9.77
2017-11-10T17:14:55.784Z,8.53
2017-11-10T17:17:23.366Z,8.83
2017-11-10T17:19:51.238Z,10.10
2017-11-10T17:22:18.762Z,7.90
2017-11-10T17:24:47.109Z,9.60
2017-11-10T17:27:14.691Z,12.40
2017-11-10T17:29:42.249Z,8.33
2017-11-10T17:32:09.780Z,10.27
2017-11-10T17:34:37.523Z,9.17
2017-11-10T17:37:05.112Z,8.60
2017-11-10T17:39:32.663Z,8.50
2017-11-10T17:42:00.200Z,14.73
2017-11-10T17:44:27.764Z,11.13
2017-11-10T17:46:55.308Z,13.77
2017-11-10T17:49:22.855Z,13.00
2017-11-10T17:51:50.441Z,12.77
2017-11-10T17:54:18.060Z,10.30
2017-11-10T17:56:45.896Z,11.10
2017-11-10T17:59:13.506Z,12.53
2017-11-10T18:01:41.835Z,11.57
2017-11-10T18:04:09.353Z,10.20
2017-11-10T18:06:36.930Z,9.37
2017-11-10T18:09:04.509Z,14.33
2017-11-10T18:11:32.127Z,10.37
2017-11-10T18:13:59.656Z,10.57
2017-11-10T18:16:27.179Z,12.10
2017-11-10T18:18:54.786Z,9.80
2017-11-10T18:21:22.304Z,9.83
2017-11-10T18:23:49.802Z,7.33
2017-11-10T18:26:17.410Z,9.43
2017-11-10T18:28:45.302Z,8.17
2017-11-10T18:31:12.910Z,10.80
2017-11-10T18:33:40.500Z,11.33
2017-11-10T18:36:08.035Z,13.37
2017-11-10T18:38:35.523Z,8.17
2017-11-10T18:41:03.155Z,10.40
2017-11-10T18:43:30.831Z,9.80
2017-11-10T18:45:58.374Z,12.10
2017-11-10T18:48:31.588Z,11.60
2017-11-10T18:50:59.121Z,9.13
2017-11-10T18:53:27.892Z,10.77
2017-11-10T18:55:56.242Z,9.77
2017-11-10T18:58:23.876Z,11.73
2017-11-10T19:00:51.513Z,11.83
2017-11-10T19:03:19.143Z,12.63
2017-11-10T19:05:47.727Z,12.10
2017-11-10T19:08:15.408Z,10.50
2017-11-10T19:10:43.977Z,10.70
2017-11-10T19:13:11.504Z,9.10
2017-11-10T19:15:39.045Z,9.80
2017-11-10T19:18:06.650Z,12.00
2017-11-10T19:20:34.170Z,10.17
2017-11-10T19:23:01.726Z,10.47
2017-11-10T19:25:29.353Z,12.27
2017-11-10T19:27:57.745Z,9.87
2017-11-10T19:30:25.304Z,9.70
2017-11-10T19:32:52.842Z,11.83
2017-11-10T19:35:21.131Z,10.27
2017-11-10T19:37:49.463Z,12.80
2017-11-10T19:40:17.076Z,10.07
2017-11-10T19:42:44.700Z,10.50
2017-11-10T19:45:12.243Z,9.47
2017-11-10T19:47:39.823Z,12.67
2017-11-10T19:50:07.402Z,10.07
2017-11-10T19:52:35.754Z,10.83
2017-11-10T19:55:03.419Z,12.23
2017-11-10T19:57:31.029Z,11.70
2017-11-10T19:59:58.582Z,19.10
2017-11-10T20:02:26.191Z,11.27
2017-11-10T20:04:53.794Z,10.80
2017-11-10T20:07:21.392Z,12.80
2017-11-10T20:09:49.040Z,14.57
2017-11-10T20:12:16.606Z,15.53
2017-11-10T20:14:44.195Z,13.60
2017-11-10T20:17:11.766Z,13.10
2017-11-10T20:19:39.335Z,16.27
2017-11-10T20:22:07.769Z,13.60
2017-11-10T20:24:35.284Z,16.13
2017-11-10T20:27:02.855Z,16.73
2017-11-10T20:29:31.173Z,18.00
2017-11-10T20:31:58.714Z,15.47
2017-11-10T20:34:26.257Z,13.30
2017-11-10T20:36:53.832Z,11.80
2017-11-10T20:39:21.386Z,10.77
2017-11-10T20:41:48.889Z,13.13
2017-11-10T20:44:16.461Z,12.03
2017-11-10T20:46:44.055Z,12.30
2017-11-10T20:49:11.643Z,8.80
2017-11-10T20:51:39.233Z,8.80
2017-11-10T20:54:06.790Z,7.50
2017-11-10T20:56:34.398Z,9.67
2017-11-10T20:59:01.929Z,7.80
2017-11-10T21:01:30.266Z,8.33
2017-11-10T21:03:57.813Z,7.80
2017-11-10T21:06:25.341Z,13.30
2017-11-10T21:08:53.670Z,7.83
2017-11-10T21:11:21.220Z,9.03
2017-11-10T21:13:48.728Z,9.67
2017-11-10T21:16:17.109Z,10.30
2017-11-10T21:18:44.924Z,8.03
2017-11-10T21:21:13.586Z,7.83
2017-11-10T21:23:41.170Z,9.50
2017-11-10T21:26:08.740Z,9.87
2017-11-10T21:28:36.287Z,8.23
2017-11-10T21:31:03.846Z,9.87
2017-11-10T21:33:31.464Z,9.60
2017-11-10T21:35:59.767Z,14.23
2017-11-10T21:38:27.368Z,11.70
2017-11-10T21:40:54.876Z,15.17
2017-11-10T21:43:22.443Z,15.17
2017-11-10T21:45:50.007Z,14.73
2017-11-10T21:48:17.589Z,12.43
2017-11-10T21:50:45.116Z,8.73
2017-11-10T21:53:12.660Z,9.20
2017-11-10T21:55:41.026Z,8.43
2017-11-10T21:58:09.321Z,9.23
2017-11-10T22:00:37.752Z,8.80
2017-11-10T22:03:05.319Z,10.00
2017-11-10T22:05:32.885Z,7.60
2017-11-10T22:08:00.369Z,8.73
2017-11-10T22:10:27.955Z,9.87
2017-11-10T22:12:55.478Z,8.70
2017-11-10T22:15:23.089Z,8.30
2017-11-10T22:17:50.647Z,9.60
2017-11-10T22:20:18.177Z,9.10
2017-11-10T22:22:45.726Z,7.10
2017-11-10T22:25:13.786Z,9.87
2017-11-10T22:27:42.105Z,9.70
2017-11-10T22:30:09.630Z,9.53
2017-11-10T22:32:37.163Z,7.47
2017-11-10T22:35:04.738Z,6.70
2017-11-10T22:37:32.736Z,6.97
2017-11-10T22:40:00.285Z,6.10
2017-11-10T22:42:27.985Z,10.23
2017-11-10T22:44:55.529Z,5.77
2017-11-10T22:47:23.072Z,7.63
2017-11-10T22:49:50.630Z,6.73
2017-11-10T22:52:18.492Z,7.03
2017-11-10T22:54:46.750Z,6.60
2017-11-10T22:57:14.307Z,7.23
2017-11-10T22:59:41.861Z,5.40
2017-11-10T23:02:09.380Z,6.10
2017-11-10T23:04:36.907Z,6.60
2017-11-10T23:07:04.456Z,5.20
2017-11-10T23:09:32.781Z,5.10
2017-11-10T23:12:00.334Z,5.67
2017-11-10T23:14:28.666Z,5.40
2017-11-10T23:16:56.232Z,5.23
2017-11-10T23:19:23.750Z,5.23
2017-11-10T23:21:51.287Z,5.00
2017-11-10T23:24:18.835Z,6.07
2017-11-10T23:26:47.144Z,5.40
2017-11-10T23:29:14.696Z,6.97
2017-11-10T23:31:42.197Z,5.23
2017-11-10T23:34:10.553Z,3.67
2017-11-10T23:36:38.107Z,3.77
2017-11-10T23:39:05.614Z,4.10
2017-11-10T23:41:33.171Z,4.17
2017-11-10T23:44:00.988Z,4.43
2017-11-10T23:46:28.649Z,4.60
2017-11-10T23:48:57.094Z,4.53
2017-11-10T23:51:24.776Z,4.77
2017-11-10T23:53:52.444Z,4.97
2017-11-10T23:56:21.113Z,5.13
2017-11-10T23:58:48.641Z,9.90
